メインページ
METAR-TAF:

METAR-TAF

空港 :

チャーチル, マニトバ州, カナダ

緯度: 58-44N, 経度: 094-04W, 海抜: 28m

現時点の気象観測

当レポートは53分前の11:00(UTC)に作成
西/北西の風 8kt
気温 -21°C
湿度 84%
気圧 1027 hPa
視程: 24.1km
高度8000ftの雲は散在している
高度13000ftの雲は散在している

METAR: CYYQ 231100Z 30008KT 15SM SCT080 SCT130 M21/M23 A3032 RMK AC3AC1 SLP273

時間: 06:53 (11:53 UTC)

予報

当レポートは11分前の11:42(UTC)に作成
予報は23日の 12時(UTC)から 24日の 12時(UTC)まで有効
北西の風 12kt
視程: 10km
高度3000ftの雲は散在している
高度8000ftの雲は散在している
23日の 12時(UTC)から 23日の 24時(UTC)まで一時的に
視程: 9.7km
高度3000ftの千切れ雲あり
高度8000ftの千切れ雲あり
小雪
24日の 0000時(UTC)から
北西の風 10kt
視程: 10km
高度3000ftの雲は散在している

TAF: CYYQ 231142Z 2312/2412 31012KT P6SM SCT030 SCT080 TEMPO 2312/2324 6SM -SN BKN030 BKN080 FM240000 32010KT P6SM SCT030 RMK NXT FCST BY 231800Z

4,000以上の空港の気象観測と天気予報(METAR報とTAF報)

利用可能な観測所は地図上に黄色い丸と赤い丸で示す。

丸の上にカーソルを重ねると観測所名を参照できる。

次にクリックすると気象観測と天気予報を参照できる。

マップの切り替え:黒色「×」印の緑ボタンをクリックして拡大、「-」印の緑ボタンをクリックして縮小、緑色の三角印をクリックして隣りの地図に切り替え


METAR-TAF: